createdAt,value
2024-04-30T00:00:17.690Z,98.24
2024-04-30T00:01:17.788Z,98.75
2024-04-30T00:02:17.662Z,98.24
2024-04-30T00:03:17.698Z,98.14
2024-04-30T00:04:17.686Z,98.03
2024-04-30T00:05:17.676Z,98.24
2024-04-30T00:06:17.629Z,98.03
2024-04-30T00:07:17.663Z,98.03
2024-04-30T00:08:17.593Z,97.73
2024-04-30T00:09:17.713Z,97.53
2024-04-30T00:10:17.699Z,97.73
2024-04-30T00:11:17.598Z,97.42
2024-04-30T00:12:17.549Z,97.73
2024-04-30T00:13:17.605Z,97.93
2024-04-30T00:14:17.525Z,97.98
2024-04-30T00:15:18.193Z,98.08
2024-04-30T00:16:17.511Z,98.08
2024-04-30T00:17:17.499Z,97.98
2024-04-30T00:18:17.490Z,97.57
2024-04-30T00:19:17.531Z,97.78
2024-04-30T00:20:17.617Z,97.78
2024-04-30T00:21:17.463Z,97.78
2024-04-30T00:22:17.476Z,97.88
2024-04-30T00:23:17.422Z,97.78
2024-04-30T00:24:17.421Z,97.67
2024-04-30T00:25:17.425Z,97.57
2024-04-30T00:26:17.397Z,97.37
2024-04-30T00:27:17.441Z,97.47
2024-04-30T00:28:17.422Z,97.37
2024-04-30T00:29:17.356Z,97.16
2024-04-30T00:30:17.354Z,97.47
2024-04-30T00:31:17.386Z,96.96
2024-04-30T00:32:17.438Z,96.86
2024-04-30T00:33:17.418Z,97.31
2024-04-30T00:34:17.417Z,97.21
2024-04-30T00:35:17.287Z,97.11
2024-04-30T00:36:17.311Z,97.21
2024-04-30T00:37:17.359Z,97.52
2024-04-30T00:38:17.271Z,97.52
2024-04-30T00:39:17.292Z,97.56
2024-04-30T00:40:17.279Z,97.46
2024-04-30T00:41:17.244Z,97.31
2024-04-30T00:42:17.213Z,97.31
2024-04-30T00:43:17.285Z,97.05
2024-04-30T00:44:17.189Z,97.36
2024-04-30T00:45:17.200Z,97.05
2024-04-30T00:46:17.203Z,97.46
2024-04-30T00:47:17.178Z,97.16
2024-04-30T00:48:17.218Z,97.36
2024-04-30T00:49:17.167Z,97.56
2024-04-30T00:50:17.122Z,97.46
2024-04-30T00:51:17.120Z,97.46
2024-04-30T00:52:17.136Z,97.36
2024-04-30T00:53:17.090Z,97.56
2024-04-30T00:54:17.099Z,97.66
2024-04-30T00:55:17.095Z,97.56
2024-04-30T00:56:17.056Z,97.56
2024-04-30T00:57:17.081Z,97.71
2024-04-30T00:58:17.048Z,97.25
2024-04-30T00:59:17.028Z,97.30
2024-04-30T01:00:17.011Z,97.20
2024-04-30T01:01:17.026Z,97.09
2024-04-30T01:02:16.989Z,97.20
2024-04-30T01:03:17.016Z,97.40
2024-04-30T01:04:16.994Z,97.20
2024-04-30T01:05:16.961Z,97.50
2024-04-30T01:06:16.945Z,97.61
2024-04-30T01:07:16.996Z,97.50
2024-04-30T01:08:17.000Z,97.20
2024-04-30T01:09:16.937Z,97.20
2024-04-30T01:10:16.948Z,97.14
2024-04-30T01:11:16.885Z,97.30
2024-04-30T01:12:16.877Z,97.20
2024-04-30T01:13:16.870Z,97.24
2024-04-30T01:14:16.856Z,97.14
2024-04-30T01:15:16.879Z,97.14
2024-04-30T01:16:16.968Z,97.14
2024-04-30T01:17:16.840Z,97.14
2024-04-30T01:18:16.812Z,97.14
2024-04-30T01:19:16.873Z,97.34
2024-04-30T01:20:16.825Z,96.94
2024-04-30T01:21:16.805Z,96.94
2024-04-30T01:22:16.794Z,97.34
2024-04-30T01:23:16.757Z,97.24
2024-04-30T01:24:16.848Z,97.14
2024-04-30T01:25:16.831Z,97.45
2024-04-30T01:26:16.729Z,97.65
2024-04-30T01:27:16.736Z,97.75
2024-04-30T01:28:16.707Z,97.24
2024-04-30T01:29:16.697Z,97.70
2024-04-30T01:30:16.679Z,97.70
2024-04-30T01:31:16.678Z,97.65
2024-04-30T01:32:16.690Z,97.39
2024-04-30T01:33:16.867Z,97.70
2024-04-30T01:34:16.687Z,97.29
2024-04-30T01:35:16.613Z,97.70
2024-04-30T01:36:16.604Z,97.70
2024-04-30T01:37:16.636Z,97.70
2024-04-30T01:38:16.581Z,97.70
2024-04-30T01:39:16.627Z,97.70
2024-04-30T01:40:16.765Z,97.70
2024-04-30T01:41:16.546Z,97.19
2024-04-30T01:42:16.562Z,97.19
2024-04-30T01:43:16.571Z,97.14
2024-04-30T01:44:16.517Z,97.24
2024-04-30T01:45:16.514Z,97.49
2024-04-30T01:46:16.564Z,97.39
2024-04-30T01:47:16.493Z,97.45
2024-04-30T01:48:16.573Z,97.19
2024-04-30T01:49:16.516Z,97.75
2024-04-30T01:50:16.464Z,97.70
2024-04-30T01:51:16.478Z,97.70
2024-04-30T01:52:16.486Z,97.70
2024-04-30T01:53:16.418Z,97.70
2024-04-30T01:54:16.418Z,97.75
2024-04-30T01:55:16.489Z,97.90
2024-04-30T01:56:16.381Z,97.75
2024-04-30T01:57:16.373Z,98.16
2024-04-30T01:58:16.420Z,97.96
2024-04-30T01:59:16.356Z,97.96
2024-04-30T02:00:16.344Z,97.96
2024-04-30T02:01:16.390Z,97.96
2024-04-30T02:02:16.355Z,97.71
2024-04-30T02:03:16.358Z,98.27
2024-04-30T02:04:16.309Z,98.32
2024-04-30T02:05:21.057Z,98.11
2024-04-30T02:06:17.283Z,98.11
2024-04-30T02:07:16.349Z,98.32
2024-04-30T02:08:16.241Z,98.22
2024-04-30T02:09:16.246Z,98.02
2024-04-30T02:10:16.254Z,98.32
2024-04-30T02:11:16.249Z,98.11
2024-04-30T02:12:16.224Z,98.07
2024-04-30T02:13:16.204Z,98.07
2024-04-30T02:14:16.191Z,97.97
2024-04-30T02:15:16.197Z,98.07
2024-04-30T02:16:16.174Z,98.18
2024-04-30T02:17:16.162Z,98.27
2024-04-30T02:18:16.178Z,98.33
2024-04-30T02:19:16.194Z,98.38
2024-04-30T02:20:16.105Z,98.33
2024-04-30T02:21:16.128Z,98.64
2024-04-30T02:22:16.121Z,98.74
2024-04-30T02:23:16.075Z,98.69
2024-04-30T02:24:16.071Z,98.69
2024-04-30T02:25:16.085Z,98.59
2024-04-30T02:26:16.122Z,99.20
2024-04-30T02:27:16.039Z,99.05
2024-04-30T02:28:16.066Z,99.36
2024-04-30T02:29:16.014Z,99.16
2024-04-30T02:30:16.049Z,99.36
2024-04-30T02:31:16.036Z,99.11
2024-04-30T02:32:15.996Z,99.31
2024-04-30T02:33:16.035Z,99.16
2024-04-30T02:34:15.989Z,99.06
2024-04-30T02:35:15.943Z,98.66
2024-04-30T02:36:15.929Z,98.86
2024-04-30T02:37:15.951Z,98.86
2024-04-30T02:38:15.905Z,98.96
2024-04-30T02:39:15.975Z,98.86
2024-04-30T02:40:15.958Z,98.81
2024-04-30T02:41:15.902Z,98.91
2024-04-30T02:42:15.862Z,98.91
2024-04-30T02:43:15.876Z,99.02
2024-04-30T02:44:15.864Z,98.66
2024-04-30T02:45:15.854Z,98.66
2024-04-30T02:46:15.891Z,98.56
2024-04-30T02:47:15.825Z,99.07
2024-04-30T02:48:15.831Z,99.13
2024-04-30T02:49:15.846Z,98.52
2024-04-30T02:50:15.770Z,98.41
2024-04-30T02:51:15.797Z,98.32
2024-04-30T02:52:15.800Z,98.32
2024-04-30T02:53:15.747Z,98.16
2024-04-30T02:54:15.739Z,98.41
2024-04-30T02:55:15.793Z,98.41
2024-04-30T02:56:15.708Z,98.52
2024-04-30T02:57:15.715Z,98.47
2024-04-30T02:58:15.757Z,98.37
2024-04-30T02:59:15.674Z,98.27
2024-04-30T03:00:15.694Z,98.57
2024-04-30T03:01:15.726Z,98.07
2024-04-30T03:02:15.714Z,98.16
2024-04-30T03:03:15.671Z,98.16
2024-04-30T03:04:15.753Z,98.57
2024-04-30T03:05:15.599Z,98.37
2024-04-30T03:06:15.592Z,98.07
2024-04-30T03:07:15.625Z,98.47
2024-04-30T03:08:15.567Z,98.16
2024-04-30T03:09:15.582Z,98.47
2024-04-30T03:10:15.579Z,98.43
2024-04-30T03:11:15.621Z,98.22
2024-04-30T03:12:15.523Z,98.32
2024-04-30T03:13:15.609Z,98.43
2024-04-30T03:14:15.513Z,98.83
2024-04-30T03:15:17.611Z,99.04
2024-04-30T03:16:15.498Z,98.83
2024-04-30T03:17:15.514Z,98.68
2024-04-30T03:18:15.529Z,98.68
2024-04-30T03:19:15.464Z,98.68
2024-04-30T03:20:15.429Z,98.58
2024-04-30T03:21:15.459Z,98.84
2024-04-30T03:22:15.436Z,98.48
2024-04-30T03:23:15.395Z,98.74
2024-04-30T03:24:15.418Z,98.84
2024-04-30T03:25:15.424Z,98.84
2024-04-30T03:26:15.364Z,98.79
2024-04-30T03:27:15.379Z,98.69
2024-04-30T03:28:15.366Z,98.18
2024-04-30T03:29:15.330Z,97.98
2024-04-30T03:30:15.317Z,97.78
2024-04-30T03:31:15.397Z,98.18
2024-04-30T03:32:15.295Z,97.78
2024-04-30T03:33:15.435Z,98.08
2024-04-30T03:34:15.320Z,97.78
2024-04-30T03:35:15.272Z,97.83
2024-04-30T03:36:15.254Z,97.47
2024-04-30T03:37:15.305Z,97.58
2024-04-30T03:38:15.234Z,97.53
2024-04-30T03:39:15.268Z,97.67
2024-04-30T03:40:15.250Z,97.47
2024-04-30T03:41:15.385Z,97.38
2024-04-30T03:42:15.186Z,97.23
2024-04-30T03:43:15.210Z,96.97
2024-04-30T03:44:15.186Z,97.27
2024-04-30T03:45:15.172Z,97.27
2024-04-30T03:46:15.291Z,97.27
2024-04-30T03:47:15.184Z,97.38
2024-04-30T03:48:15.142Z,97.07
2024-04-30T03:49:15.139Z,97.27
2024-04-30T03:50:15.132Z,97.07
2024-04-30T03:51:15.135Z,97.17
2024-04-30T03:52:15.130Z,97.27
2024-04-30T03:53:15.082Z,97.07
2024-04-30T03:54:15.087Z,97.17
2024-04-30T03:55:15.081Z,97.17
2024-04-30T03:56:15.066Z,97.17
2024-04-30T03:57:15.022Z,96.97
2024-04-30T03:58:15.069Z,97.27
2024-04-30T03:59:15.029Z,97.47
2024-04-30T04:00:14.999Z,97.38
2024-04-30T04:01:15.016Z,97.27
2024-04-30T04:02:14.959Z,97.47
2024-04-30T04:03:15.009Z,97.17
2024-04-30T04:04:15.075Z,97.47
2024-04-30T04:05:14.925Z,97.58
2024-04-30T04:06:17.524Z,97.27
2024-04-30T04:07:14.985Z,97.17
2024-04-30T04:08:14.894Z,97.67
2024-04-30T04:09:14.913Z,97.17
2024-04-30T04:10:14.937Z,97.67
2024-04-30T04:11:14.878Z,97.47
2024-04-30T04:12:14.868Z,97.58
2024-04-30T04:13:14.851Z,97.47
2024-04-30T04:14:14.926Z,97.47
2024-04-30T04:15:14.850Z,97.13
2024-04-30T04:16:14.891Z,97.23
2024-04-30T04:17:14.798Z,97.23
2024-04-30T04:18:14.882Z,97.23
2024-04-30T04:19:14.805Z,97.02
2024-04-30T04:20:14.759Z,97.13
2024-04-30T04:21:18.220Z,97.13
2024-04-30T04:22:14.797Z,97.23
2024-04-30T04:23:14.723Z,97.43
2024-04-30T04:24:14.716Z,97.33
2024-04-30T04:25:14.833Z,97.02
2024-04-30T04:26:14.724Z,97.33
2024-04-30T04:27:14.716Z,97.02
2024-04-30T04:28:14.692Z,96.51
2024-04-30T04:29:14.662Z,96.92
2024-04-30T04:30:14.651Z,96.51
2024-04-30T04:31:14.662Z,96.42
2024-04-30T04:32:14.726Z,96.15
2024-04-30T04:33:14.660Z,96.01
2024-04-30T04:34:14.660Z,96.26
2024-04-30T04:35:14.594Z,96.36
2024-04-30T04:36:14.584Z,96.56
2024-04-30T04:37:14.616Z,96.56
2024-04-30T04:38:14.570Z,96.87
2024-04-30T04:39:14.580Z,96.46
2024-04-30T04:40:14.570Z,96.66
2024-04-30T04:41:14.525Z,96.36
2024-04-30T04:42:14.517Z,96.36
2024-04-30T04:43:14.517Z,96.36
2024-04-30T04:44:14.510Z,96.71
2024-04-30T04:45:14.499Z,96.51
2024-04-30T04:46:14.526Z,96.66
2024-04-30T04:47:14.494Z,96.51
2024-04-30T04:48:14.547Z,96.71
2024-04-30T04:49:14.458Z,96.30
2024-04-30T04:50:14.424Z,96.06
2024-04-30T04:51:14.451Z,96.51
2024-04-30T04:52:14.479Z,96.26
2024-04-30T04:53:14.398Z,96.66
2024-04-30T04:54:14.418Z,96.51
2024-04-30T04:55:14.380Z,96.77
2024-04-30T04:56:14.387Z,96.66
2024-04-30T04:57:14.374Z,96.66
2024-04-30T04:58:14.364Z,96.71
2024-04-30T04:59:14.332Z,96.71
2024-04-30T05:00:14.324Z,96.71
2024-04-30T05:01:14.378Z,96.46
2024-04-30T05:02:14.340Z,96.71
2024-04-30T05:03:14.324Z,96.66
2024-04-30T05:04:14.469Z,96.71
2024-04-30T05:05:14.265Z,96.66
2024-04-30T05:06:14.260Z,96.46
2024-04-30T05:07:14.249Z,96.66
2024-04-30T05:08:14.979Z,96.66
2024-04-30T05:09:14.248Z,96.46
2024-04-30T05:10:14.255Z,96.66
2024-04-30T05:11:14.282Z,96.66
2024-04-30T05:12:14.175Z,96.66
2024-04-30T05:13:14.186Z,96.46
2024-04-30T05:14:14.172Z,96.77
2024-04-30T05:15:14.176Z,96.46
2024-04-30T05:16:14.161Z,96.46
2024-04-30T05:17:14.181Z,96.72
2024-04-30T05:18:14.152Z,96.42
2024-04-30T05:19:14.148Z,96.72
2024-04-30T05:20:14.095Z,96.62
2024-04-30T05:21:14.096Z,96.62
2024-04-30T05:22:14.109Z,96.42
2024-04-30T05:23:14.058Z,96.62
2024-04-30T05:24:14.061Z,96.42
2024-04-30T05:25:14.096Z,96.72
2024-04-30T05:26:14.046Z,96.62
2024-04-30T05:27:14.081Z,96.62
2024-04-30T05:28:14.060Z,96.31
2024-04-30T05:29:13.987Z,96.17
2024-04-30T05:30:13.981Z,96.22
2024-04-30T05:31:14.004Z,95.97
2024-04-30T05:32:13.962Z,95.97
2024-04-30T05:33:14.041Z,95.97
2024-04-30T05:34:14.009Z,96.17
2024-04-30T05:35:13.925Z,95.86
2024-04-30T05:36:14.037Z,96.17
2024-04-30T05:37:13.929Z,96.12
2024-04-30T05:38:13.981Z,95.92
2024-04-30T05:39:13.899Z,96.02
2024-04-30T05:40:13.903Z,96.53
2024-04-30T05:41:13.989Z,96.42
2024-04-30T05:42:13.985Z,96.42
2024-04-30T05:43:13.851Z,96.78
2024-04-30T05:44:13.818Z,96.89
2024-04-30T05:45:13.891Z,96.78
2024-04-30T05:46:13.840Z,96.78
2024-04-30T05:47:20.492Z,96.78
2024-04-30T05:48:13.978Z,96.54
2024-04-30T05:49:13.795Z,96.74
2024-04-30T05:50:13.753Z,96.74
2024-04-30T05:51:13.773Z,96.74
2024-04-30T05:52:13.832Z,96.34
2024-04-30T05:53:13.713Z,96.39
2024-04-30T05:54:13.723Z,96.74
2024-04-30T05:55:13.722Z,96.69
2024-04-30T05:56:13.687Z,96.29
2024-04-30T05:57:13.738Z,96.29
2024-04-30T05:58:13.749Z,96.59
2024-04-30T05:59:13.654Z,96.14
2024-04-30T06:00:13.658Z,96.25
2024-04-30T06:01:13.701Z,96.55
2024-04-30T06:02:13.611Z,96.65
2024-04-30T06:03:13.662Z,96.14
2024-04-30T06:04:13.648Z,96.10
2024-04-30T06:05:13.870Z,96.20
2024-04-30T06:06:13.580Z,96.30
2024-04-30T06:07:13.586Z,96.40
2024-04-30T06:08:13.605Z,95.85
2024-04-30T06:09:13.764Z,95.95
2024-04-30T06:10:13.590Z,96.05
2024-04-30T06:11:13.535Z,96.01
2024-04-30T06:12:13.533Z,96.01
2024-04-30T06:13:13.530Z,96.61
2024-04-30T06:14:13.504Z,96.51
2024-04-30T06:15:13.486Z,96.56
2024-04-30T06:16:13.504Z,95.66
2024-04-30T06:17:13.460Z,96.47
2024-04-30T06:18:13.540Z,96.52
2024-04-30T06:19:13.420Z,96.42
2024-04-30T06:20:13.968Z,96.12
2024-04-30T06:21:14.241Z,96.28
2024-04-30T06:22:13.460Z,96.37
2024-04-30T06:23:13.380Z,96.37
2024-04-30T06:24:13.399Z,96.48
2024-04-30T06:25:13.396Z,96.58
2024-04-30T06:26:13.388Z,96.03
2024-04-30T06:27:13.363Z,95.83
2024-04-30T06:28:13.333Z,95.83
2024-04-30T06:29:13.312Z,95.88
2024-04-30T06:30:13.326Z,95.88
2024-04-30T06:31:13.336Z,95.88
2024-04-30T06:32:13.297Z,95.53
2024-04-30T06:33:13.323Z,95.64
2024-04-30T06:34:13.357Z,95.84
2024-04-30T06:35:13.241Z,96.34
2024-04-30T06:36:13.232Z,96.19
2024-04-30T06:37:13.232Z,96.19
2024-04-30T06:38:13.211Z,96.19
2024-04-30T06:39:13.265Z,96.50
2024-04-30T06:40:13.237Z,96.30
2024-04-30T06:41:13.181Z,96.25
2024-04-30T06:42:13.191Z,96.10
2024-04-30T06:43:13.450Z,96.50
2024-04-30T06:44:13.144Z,96.50
2024-04-30T06:45:13.175Z,96.10
2024-04-30T06:46:13.172Z,96.06
2024-04-30T06:47:13.137Z,96.06
2024-04-30T06:48:13.270Z,96.36
2024-04-30T06:49:13.158Z,96.06
2024-04-30T06:50:13.102Z,96.01
2024-04-30T06:51:13.071Z,96.41
2024-04-30T06:52:13.076Z,96.11
2024-04-30T06:53:13.057Z,96.26
2024-04-30T06:54:13.090Z,96.36
2024-04-30T06:55:13.076Z,96.56
2024-04-30T06:56:13.019Z,95.92
2024-04-30T06:57:13.296Z,95.92
2024-04-30T06:58:14.106Z,95.92
2024-04-30T06:59:13.035Z,95.92
2024-04-30T07:00:12.967Z,95.97
2024-04-30T07:01:12.990Z,95.97
2024-04-30T07:02:13.023Z,95.97
2024-04-30T07:03:13.031Z,95.57
2024-04-30T07:04:13.008Z,95.37
2024-04-30T07:05:13.088Z,95.12
2024-04-30T07:06:12.897Z,95.32
2024-04-30T07:07:12.992Z,95.32
2024-04-30T07:08:12.910Z,95.23
2024-04-30T07:09:13.074Z,95.32
2024-04-30T07:10:12.895Z,95.48
2024-04-30T07:11:12.883Z,95.28
2024-04-30T07:12:12.847Z,95.38
2024-04-30T07:13:13.560Z,95.08
2024-04-30T07:14:13.926Z,95.28
2024-04-30T07:15:12.795Z,95.58
2024-04-30T07:16:12.807Z,95.34
2024-04-30T07:17:12.842Z,95.34
2024-04-30T07:18:13.110Z,95.23
2024-04-30T07:19:12.809Z,95.54
2024-04-30T07:20:12.825Z,95.64
2024-04-30T07:21:12.730Z,95.64
2024-04-30T07:22:12.741Z,95.64
2024-04-30T07:23:12.728Z,95.64
2024-04-30T07:24:12.692Z,95.09
2024-04-30T07:25:12.711Z,95.19
2024-04-30T07:26:15.107Z,95.19
2024-04-30T07:27:12.669Z,95.29
2024-04-30T07:28:12.687Z,95.29
2024-04-30T07:29:14.518Z,95.19
2024-04-30T07:30:12.651Z,95.09
2024-04-30T07:31:12.732Z,95.15
2024-04-30T07:32:13.567Z,95.09
2024-04-30T07:33:12.866Z,95.15
2024-04-30T07:34:12.721Z,95.64
2024-04-30T07:35:12.607Z,95.64
2024-04-30T07:36:12.562Z,95.64
2024-04-30T07:37:12.601Z,95.54
2024-04-30T07:38:12.667Z,95.54
2024-04-30T07:39:12.532Z,95.64
2024-04-30T07:40:12.789Z,95.50
2024-04-30T07:41:12.527Z,95.60
2024-04-30T07:42:12.543Z,95.40
2024-04-30T07:43:12.548Z,95.60
2024-04-30T07:44:19.556Z,95.20
2024-04-30T07:45:22.681Z,95.30
2024-04-30T07:46:12.526Z,95.50
2024-04-30T07:47:12.472Z,95.00
2024-04-30T07:48:12.542Z,95.40
2024-04-30T07:49:12.456Z,95.00
2024-04-30T07:50:16.063Z,95.40
2024-04-30T07:51:12.394Z,95.20
2024-04-30T07:52:12.416Z,95.30
2024-04-30T07:53:36.770Z,95.06
2024-04-30T07:54:12.386Z,95.36
2024-04-30T07:55:13.362Z,95.10
2024-04-30T07:56:22.315Z,95.20
2024-04-30T07:57:12.945Z,95.06
2024-04-30T07:58:12.378Z,95.65
2024-04-30T07:59:12.540Z,96.05
2024-04-30T08:00:12.612Z,96.15
2024-04-30T08:01:12.450Z,95.25
2024-04-30T08:02:14.800Z,95.55
2024-04-30T08:03:12.417Z,95.55
2024-04-30T08:05:31.241Z,95.51
2024-04-30T08:06:30.026Z,95.65
2024-04-30T08:07:30.788Z,95.75
2024-04-30T08:09:56.732Z,95.95
2024-04-30T08:11:04.615Z,96.15
2024-04-30T08:11:56.703Z,95.95
2024-04-30T08:14:56.518Z,95.75
2024-04-30T08:16:10.281Z,96.05
2024-04-30T08:16:55.667Z,96.15
2024-04-30T08:17:55.722Z,96.55
2024-04-30T08:18:55.702Z,96.45
2024-04-30T08:19:55.584Z,96.41
2024-04-30T08:20:55.586Z,96.11
2024-04-30T08:21:55.592Z,95.90
2024-04-30T08:22:55.565Z,96.11
2024-04-30T08:23:55.600Z,96.01
2024-04-30T08:24:55.822Z,95.51
2024-04-30T08:25:55.720Z,95.56
2024-04-30T08:26:55.622Z,95.46
2024-04-30T08:27:55.494Z,95.66
2024-04-30T08:28:55.519Z,95.76
2024-04-30T08:29:55.462Z,95.96
2024-04-30T08:30:55.458Z,95.76
2024-04-30T08:31:55.446Z,95.96
2024-04-30T08:32:55.471Z,95.56
2024-04-30T08:33:55.512Z,95.66
2024-04-30T08:34:55.499Z,95.62
2024-04-30T08:35:55.400Z,95.81
2024-04-30T08:36:55.480Z,95.72
2024-04-30T08:38:58.886Z,95.42
2024-04-30T08:40:08.516Z,94.92
2024-04-30T08:40:59.099Z,95.42
2024-04-30T08:41:58.798Z,96.01
2024-04-30T08:42:58.770Z,95.92
2024-04-30T08:45:23.728Z,95.72
2024-04-30T08:46:16.234Z,95.81
2024-04-30T08:47:16.374Z,95.92
2024-04-30T08:48:16.227Z,95.62
2024-04-30T08:49:23.915Z,95.81
2024-04-30T08:50:18.694Z,95.72
2024-04-30T08:51:16.202Z,95.87
2024-04-30T08:52:16.139Z,95.47
2024-04-30T08:55:26.772Z,95.97
2024-04-30T08:56:26.672Z,95.57
2024-04-30T08:57:26.692Z,95.57
2024-04-30T08:58:26.770Z,95.67
2024-04-30T08:59:26.679Z,95.67
2024-04-30T09:00:26.627Z,95.57
2024-04-30T09:01:26.675Z,95.67
2024-04-30T09:02:26.636Z,95.87
2024-04-30T09:03:26.646Z,95.57
2024-04-30T09:04:26.613Z,95.37
2024-04-30T09:05:26.581Z,95.97
2024-04-30T09:06:26.569Z,95.62
2024-04-30T09:07:26.807Z,95.67
2024-04-30T09:10:52.765Z,95.72
2024-04-30T09:11:52.889Z,95.77
2024-04-30T09:12:52.614Z,95.37
2024-04-30T09:13:52.751Z,95.67
2024-04-30T09:14:52.609Z,95.67
2024-04-30T09:15:52.604Z,95.72
2024-04-30T09:16:52.733Z,95.53
2024-04-30T09:17:52.665Z,95.72
2024-04-30T09:18:52.551Z,95.62
2024-04-30T09:19:52.543Z,95.92
2024-04-30T09:20:52.630Z,95.83
2024-04-30T09:21:52.507Z,95.53
2024-04-30T09:22:52.564Z,95.62
2024-04-30T09:23:52.501Z,95.42
2024-04-30T09:24:52.533Z,95.92
2024-04-30T09:25:52.489Z,95.58
2024-04-30T09:26:52.484Z,95.28
2024-04-30T09:27:52.453Z,95.58
2024-04-30T09:28:52.489Z,95.28
2024-04-30T09:29:52.435Z,95.28
2024-04-30T09:30:52.435Z,95.38
2024-04-30T09:31:52.399Z,95.38
2024-04-30T09:32:52.511Z,95.38
2024-04-30T09:33:52.450Z,94.78
2024-04-30T09:34:52.478Z,94.78
2024-04-30T09:35:52.383Z,94.58
2024-04-30T09:36:52.420Z,94.54
2024-04-30T09:37:52.342Z,94.93
2024-04-30T09:38:52.353Z,95.03
2024-04-30T09:39:52.380Z,94.74
2024-04-30T09:40:52.333Z,94.84
2024-04-30T09:41:52.290Z,94.74
2024-04-30T09:42:52.289Z,94.74
2024-04-30T09:43:52.268Z,94.74
2024-04-30T09:44:52.290Z,95.43
2024-04-30T09:45:52.354Z,95.33
2024-04-30T09:46:52.407Z,95.23
2024-04-30T09:47:52.262Z,95.78
2024-04-30T09:48:52.217Z,95.53
2024-04-30T09:49:52.463Z,95.39
2024-04-30T09:50:52.248Z,95.49
2024-04-30T09:51:52.275Z,95.29
2024-04-30T09:52:53.021Z,95.39
2024-04-30T09:53:52.159Z,95.39
2024-04-30T09:54:52.184Z,95.09
2024-04-30T09:55:52.243Z,95.68
2024-04-30T09:56:52.131Z,95.29
2024-04-30T09:57:52.120Z,95.78
2024-04-30T09:58:52.122Z,95.78
2024-04-30T09:59:53.035Z,95.39
2024-04-30T10:00:52.144Z,95.29
2024-04-30T10:01:52.146Z,95.68
2024-04-30T10:02:52.159Z,95.78
2024-04-30T10:03:52.092Z,95.29
2024-04-30T10:04:52.396Z,95.49
2024-04-30T10:05:52.107Z,95.19
2024-04-30T10:06:52.484Z,95.39
2024-04-30T10:07:52.194Z,95.68
2024-04-30T10:08:51.993Z,95.59
2024-04-30T10:09:51.997Z,95.49
2024-04-30T10:12:11.189Z,95.49
2024-04-30T10:13:12.248Z,95.68
2024-04-30T10:14:11.153Z,95.78
2024-04-30T10:15:11.151Z,95.19
2024-04-30T10:16:11.233Z,95.59
2024-04-30T10:17:11.245Z,95.19
2024-04-30T10:18:11.317Z,95.29
2024-04-30T10:19:11.096Z,95.68
2024-04-30T10:20:11.072Z,95.29
2024-04-30T10:21:11.053Z,95.78
2024-04-30T10:22:11.180Z,95.78
2024-04-30T10:23:11.023Z,95.89
2024-04-30T10:24:11.070Z,95.64
2024-04-30T10:25:11.063Z,95.64
2024-04-30T10:26:11.016Z,95.84
2024-04-30T10:27:10.979Z,95.74
2024-04-30T10:28:11.161Z,95.74
2024-04-30T10:29:10.958Z,95.64
2024-04-30T10:30:11.098Z,95.64
2024-04-30T10:31:10.972Z,95.34
2024-04-30T10:32:10.975Z,95.44
2024-04-30T10:33:11.018Z,95.64
2024-04-30T10:34:10.955Z,95.24
2024-04-30T10:35:10.950Z,95.44
2024-04-30T10:36:11.044Z,95.40
2024-04-30T10:37:11.549Z,95.40
2024-04-30T10:38:10.913Z,95.50
2024-04-30T10:39:23.770Z,95.20
2024-04-30T10:40:11.016Z,95.20
2024-04-30T10:41:10.858Z,95.29
2024-04-30T10:42:11.111Z,95.20
2024-04-30T10:43:10.873Z,95.65
2024-04-30T10:44:10.833Z,95.40
2024-04-30T10:45:10.815Z,95.40
2024-04-30T10:46:11.067Z,95.59
2024-04-30T10:47:10.803Z,95.29
2024-04-30T10:48:11.585Z,95.25
2024-04-30T10:49:10.856Z,95.15
2024-04-30T10:50:18.665Z,95.25
2024-04-30T10:51:11.717Z,95.25
2024-04-30T10:52:10.747Z,95.65
2024-04-30T10:53:10.696Z,95.55
2024-04-30T10:54:10.692Z,95.35
2024-04-30T10:55:10.892Z,94.85
2024-04-30T10:56:10.664Z,94.95
2024-04-30T10:57:10.650Z,95.15
2024-04-30T10:58:10.674Z,94.95
2024-04-30T10:59:10.629Z,94.46
2024-04-30T11:00:10.698Z,94.35
2024-04-30T11:01:10.680Z,95.15
2024-04-30T11:02:10.601Z,94.95
2024-04-30T11:03:10.648Z,94.95
2024-04-30T11:04:10.667Z,94.95
2024-04-30T11:05:10.778Z,94.56
2024-04-30T11:06:10.582Z,94.95
2024-04-30T11:07:10.556Z,94.85
2024-04-30T11:08:10.522Z,95.45
2024-04-30T11:09:10.545Z,95.35
2024-04-30T11:10:10.819Z,95.55
2024-04-30T11:11:10.582Z,95.55
2024-04-30T11:12:10.513Z,95.55
2024-04-30T11:13:10.494Z,95.25
2024-04-30T11:14:11.483Z,95.25
2024-04-30T11:15:10.443Z,95.15
2024-04-30T11:16:14.358Z,95.65
2024-04-30T11:17:11.569Z,95.55
2024-04-30T11:18:10.568Z,95.65
2024-04-30T11:19:13.017Z,95.55
2024-04-30T11:20:10.432Z,95.05
2024-04-30T11:21:10.406Z,95.40
2024-04-30T11:22:10.427Z,95.31
2024-04-30T11:23:10.371Z,95.45
2024-04-30T11:24:10.363Z,94.85
2024-04-30T11:25:10.371Z,95.50
2024-04-30T11:26:10.523Z,95.15
2024-04-30T11:27:10.743Z,95.55
2024-04-30T11:28:10.636Z,95.60
2024-04-30T11:29:23.792Z,95.35
2024-04-30T11:30:11.307Z,95.20
2024-04-30T11:35:19.126Z,95.65
2024-04-30T11:36:19.106Z,95.95
2024-04-30T11:37:19.116Z,96.14
2024-04-30T11:41:02.088Z,96.04
2024-04-30T11:42:18.292Z,96.44
2024-04-30T11:43:02.837Z,96.14
2024-04-30T11:44:14.044Z,96.89
2024-04-30T11:45:10.826Z,96.54
2024-04-30T11:48:40.986Z,96.54
2024-04-30T11:50:55.650Z,96.49
2024-04-30T11:55:00.538Z,97.19
2024-04-30T11:56:01.000Z,96.98
2024-04-30T11:57:00.098Z,97.33
2024-04-30T12:01:29.820Z,97.24
2024-04-30T12:03:44.041Z,96.89
2024-04-30T12:04:50.934Z,97.28
2024-04-30T12:05:46.572Z,97.48
2024-04-30T12:06:44.118Z,97.28
2024-04-30T12:10:48.968Z,97.24
2024-04-30T12:11:48.699Z,96.94
2024-04-30T12:12:49.479Z,97.14
2024-04-30T12:18:16.490Z,96.94
2024-04-30T12:26:28.004Z,97.78
2024-04-30T12:27:27.016Z,97.68
2024-04-30T12:31:44.653Z,97.78
2024-04-30T12:41:12.126Z,97.48
2024-04-30T12:44:33.875Z,97.88
2024-04-30T12:47:18.564Z,97.98
2024-04-30T12:53:06.926Z,98.47
2024-04-30T13:23:02.475Z,98.68
2024-04-30T13:29:34.037Z,98.87
2024-04-30T13:41:54.818Z,99.17
2024-04-30T13:45:17.854Z,99.17
2024-04-30T13:51:50.684Z,98.47
2024-04-30T13:54:26.363Z,98.63
2024-04-30T13:55:26.342Z,98.68
2024-04-30T14:10:27.349Z,98.87
2024-04-30T14:34:07.170Z,99.16
2024-04-30T14:38:22.676Z,98.97
2024-04-30T14:39:22.760Z,99.16
2024-04-30T14:40:22.430Z,98.77
2024-04-30T14:41:22.426Z,98.67
2024-04-30T14:51:13.414Z,99.82
2024-04-30T14:52:19.087Z,98.92
2024-04-30T14:53:11.160Z,99.02
2024-04-30T14:54:11.148Z,98.72
2024-04-30T14:56:55.807Z,98.53
2024-04-30T14:57:54.926Z,98.68
2024-04-30T14:58:54.842Z,98.43
2024-04-30T14:59:54.831Z,98.53
2024-04-30T15:00:54.857Z,98.72
2024-04-30T15:01:54.946Z,98.18
2024-04-30T15:03:02.367Z,97.49
2024-04-30T15:05:31.868Z,97.49
2024-04-30T15:06:32.657Z,97.44
2024-04-30T15:11:04.976Z,97.63
2024-04-30T15:30:41.460Z,98.61
2024-04-30T15:37:23.100Z,99.55
2024-04-30T15:38:22.605Z,99.26
2024-04-30T15:39:22.399Z,99.76
2024-04-30T16:25:14.490Z,99.60
2024-04-30T16:28:13.965Z,99.69
2024-04-30T16:31:22.988Z,99.90
2024-04-30T16:32:22.992Z,99.84
2024-04-30T16:33:22.911Z,99.90
2024-04-30T16:34:24.848Z,99.99
2024-04-30T16:39:35.109Z,99.19
2024-04-30T16:42:43.516Z,99.44
2024-04-30T16:45:54.823Z,99.64
2024-04-30T16:53:12.453Z,99.39
2024-04-30T16:56:39.041Z,99.74
2024-04-30T16:57:39.035Z,99.24
2024-04-30T16:58:38.997Z,99.64
2024-04-30T16:59:38.964Z,99.54
2024-04-30T17:00:39.037Z,99.33
2024-04-30T17:01:38.979Z,99.44
2024-04-30T17:02:39.105Z,98.74
2024-04-30T17:03:39.078Z,98.79
2024-04-30T17:04:39.038Z,99.29
2024-04-30T17:05:38.892Z,98.69
2024-04-30T17:06:38.913Z,98.09
2024-04-30T17:07:38.905Z,98.39
2024-04-30T17:08:38.896Z,98.29
2024-04-30T17:09:38.952Z,98.19
2024-04-30T17:10:38.833Z,97.99
2024-04-30T17:11:38.848Z,98.09
2024-04-30T17:12:38.857Z,98.19
2024-04-30T17:13:38.801Z,97.89
2024-04-30T17:14:38.818Z,97.79
2024-04-30T17:15:38.817Z,97.94
2024-04-30T17:16:38.779Z,97.84
2024-04-30T17:17:38.790Z,98.14
2024-04-30T17:18:38.806Z,97.74
2024-04-30T17:19:38.746Z,97.44
2024-04-30T17:20:38.753Z,97.03